Weather observations for the past three days for
McCook, McCook Municipal Airport
Imperial (Metric)
Date Time (cdt) Wind (mph) Vis. (mi.) Weather Sky Cond. Temperature (ºF) Relative Humidity Wind Chill (°F) Heat Index (°F) Pressure Precipitation (in)
Air Dwpt 6 hour altimeter (in) sea level (mb) 1 hr 3 hr 6 hr
Max. Min.
02 13:53 S 3 10.00 Fair CLR 90 63 41% 91 29.89 1009.2
02 12:53 SW 6 10.00 Fair CLR 89.1 64 89.1 64.9 43% 90 29.91 1009.9
02 11:53 Vrbl 3 10.00 Fair CLR 84.9 64.9 51% 87 29.92 1010.3
02 10:53 NE 3 10.00 Fair CLR 80.1 63 56% 81 29.92 1010.5
02 09:53 Calm 10.00 Fair CLR 73.9 62.1 67% 29.94 1011.1
02 08:53 Calm 10.00 Fair CLR 66.9 60.1 79% 29.94 1011.6
02 07:53 Calm 10.00 Fair CLR 66 59 78% 29.94 1011.2
02 06:53 W 5 10.00 Fair CLR 66 59 73.9 66 78% 29.93 1010.6
02 05:53 W 7 10.00 Fair CLR 70 59 68% 29.93 1010.4
02 04:53 SW 8 10.00 Fair CLR 69.1 59 70% 29.93 1010.4
02 03:53 S 6 10.00 Fair CLR 68 60.1 76% 29.93 1010.8
02 02:53 S 3 10.00 Fair CLR 68 61 78% 29.92 1010.2
02 01:53 S 5 10.00 Fair CLR 71.1 61 71% 29.92 1010.3
02 00:53 W 6 10.00 Fair CLR 73.9 60.1 90 73 62% 29.92 1010.2
01 23:53 W 5 10.00 Fair CLR 77 60.1 56% 79 29.91 1009.9
01 22:53 S 6 10.00 A Few Clouds FEW100 78.1 60.1 54% 79 29.92 1010.3
01 21:53 S 8 10.00 Fair CLR 80.1 59 49% 81 29.9 1009.6
01 20:53 S 6 10.00 A Few Clouds FEW110 81 59 47% 81 29.88 1009.3
01 19:53 N 6 10.00 Overcast OVC110 84.9 62.1 46% 85 29.89 1009.4
01 18:53 S 9 10.00 Thunderstorm in Vicinity SCT110 90 59 93.9 88 35% 89 29.88 1008.9
01 17:53 S 8 10.00 A Few Clouds FEW110 93 62.1 36% 94 29.89 1009.2
01 16:53 SW 7 10.00 Fair CLR 93.9 64 37% 96 29.9 1009.4
01 15:53 S 6 10.00 Fair CLR 90 63 41% 91 29.93 1010.5
01 14:53 SE 3 10.00 Fair CLR 91.9 63 38% 93 29.95 1011.3
01 13:53 Vrbl 3 10.00 Fair CLR 90 62.1 39% 90 29.98 1012.2
01 12:53 Calm 10.00 Fair CLR 88 64 88 66 45% 89 30 1012.9
01 11:53 E 3 10.00 Fair CLR 86 64.9 49% 88 30.02 1013.6
01 10:53 E 7 10.00 Fair CLR 82 64.9 56% 84 30.01 1013.5
01 09:53 Calm 10.00 Fair CLR 79 64.9 62% 81 30.02 1013.6
01 08:53 Calm 10.00 Fair CLR 72 64 76% 30.02 1013.9
01 07:53 Calm 10.00 Fair CLR 68 63 84% 29.99 1013.2
01 06:53 SW 5 10.00 Fair CLR 68 63 77 68 84% 29.98 1012.5
01 05:53 Calm 10.00 Fair CLR 70 62.1 76% 29.98 1012.1
01 04:53 NW 9 10.00 Fair CLR 73.9 62.1 67% 29.98 1012.3
01 03:53 W 9 10.00 A Few Clouds FEW110 73.9 68 82% 30.01 1013.4
01 02:53 W 3 10.00 Fair CLR 73 69.1 87% 30 1013.1
01 01:53 NW 6 10.00 Fair CLR 73.9 69.1 85% 30 1012.9
01 00:53 Calm 10.00 Fair CLR 75.9 68 89.1 75 77% 77 29.99 1012.7
31 23:53 NE 6 10.00 Fair CLR 77 66 69% 79 29.98 1012.5
31 22:53 E 6 10.00 A Few Clouds FEW090 78.1 66 67% 80 29.99 1012.8
31 21:53 Calm 10.00 Fair CLR 80.1 66 62% 82 30 1013.1
31 20:53 SE 5 10.00 Fair CLR 81 64.9 58% 83 29.97 1012.3
31 19:53 E 7 10.00 Fair CLR 82.9 66 57% 85 29.95 1011.9
31 18:53 E 8 10.00 Fair CLR 89.1 66 91 86 47% 92 29.96 1011.7
31 17:53 SE 8 10.00 Fair CLR 90 64 42% 91 29.97 1011.8
31 16:53 SE 12 10.00 Fair CLR 91 64.9 42% 93 29.97 1011.9
31 15:53 SE 9 10.00 Fair CLR 90 64 42% 91 29.99 1012.5
31 14:53 SE 8 10.00 Fair CLR 90 64.9 44% 92 30 1012.9
31 13:53 SE 5 10.00 Fair CLR 88 63 43% 89 30.01 1013.4
31 12:53 Vrbl 3 10.00 Fair CLR 86 64 86 66 48% 87 30.02 1013.8
31 11:53 S 6 10.00 Fair CLR 84 62.1 48% 85 30.03 1014.1
31 10:53 NW 5 10.00 Fair CLR 81 61 51% 82 30.03 1014.0
31 09:53 W 6 10.00 Fair CLR 77 63 62% 79 30.02 1013.9
31 08:53 NW 5 10.00 Fair CLR 73 64.9 76% 30.02 1013.9
31 07:53 N 3 10.00 Fair CLR 66.9 64 91% 30.02 1014.0
31 06:53 Calm 10.00 Fair CLR 68 64 75 68 87% 30 1013.1
31 05:53 NW 6 10.00 Fair CLR 71.1 64 79% 29.96 1011.6
31 04:53 SW 8 10.00 Fair CLR 72 63 73% 29.99 1012.6
31 03:53 SW 7 10.00 Partly Cloudy SCT120 73 61 66% 29.99 1012.6
31 02:53 SW 10 10.00 Fair CLR 73 60.1 64% 29.99 1012.3
31 01:53 SW 8 10.00 NULL NULL 73 60.1 64% 29.97 1011.7
31 00:53 W 7 10.00 Fair CLR 73.9 59 89.1 72 60% 29.95 1011.1
30 23:53 W 7 10.00 Fair CLR 73.9 59 60% 29.93 1010.9
30 22:53 W 5 10.00 Fair CLR 77 59 54% 79 29.94 1011.2
30 21:53 NW 12 10.00 Fair CLR 79 59 50% 80 29.94 1011.3
30 20:53 S 5 10.00 Fair CLR 82.9 62.1 49% 84 29.91 1010.3
30 19:53 S 3 10.00 Fair CLR 84 66 55% 86 29.89 1009.7
30 18:53 S 6 10.00 Fair CLR 89.1 63 93 84.9 42% 90 29.89 1009.4
30 17:53 SE 5 10.00 Fair CLR 90 62.1 39% 90 29.88 1009.1
30 16:53 SE 3 10.00 Fair CLR 91 59 34% 90 29.88 1008.7
30 15:53 Calm 10.00 Fair CLR 93 55 28% 91 29.88 1008.9
30 14:53 NW 5 10.00 Fair CLR 91.9 57 31% 91 29.89 1009.1
Date Time (cdt) Wind (mph) Vis. (mi.) Weather Sky Cond. Air Dwpt Max. Min. Relative Humidity Wind Chill (°F) Heat Index (°F) altimeter (in) sea level (mb) 1 hr 3 hr 6 hr
6 hour
Temperature (ºF) Pressure Precipitation (in)